Sheridan, Indiana
Current Conditions -  °F | °C
As of 9:15 AM on Thursday 18 Dec 2014 (Local Time) from KTYQ Reporting Station
Overcast Overcast  
Wind Chill: 26°   Ceiling: 1500
Heat Index: 26°   Visibility: 10mi
Dew Point: 19°   Wind: 0mph
Humidity: 75%   Direction: NA
Pressure: 30.28"   Gusts: NA
Location:  40.14°N, 86.22°W
Report Text: KTYQ 181415Z AUTO 00000KT 10SM OVC015 M04/M07 A3028 RMK AO2 T10361075
Loading
Personal Weather Stations






























Interactive Weather Map New forecast layout! Learn more

10-Day Weather Forecast

Advertisements
Track Severe Weather on mobile